Time;durP1;ratioP1;P1;durP2;ratioP2;P2;SDS_P1;SDS_P2;PMS_P1;PMS_P2;Temp;Humidity;BMP_temperature;BMP_pressure;BME280_temperature;BME280_humidity;BME280_pressure;Samples;Min_cycle;Max_cycle;Signal;HPM_P1;HPM_P2
2022/05/11 00:00:12;;;;;;;10.27;2.33;;;14.90;99.90;;;;;;5073347;28;37529;-75
2022/05/11 00:02:38;;;;;;;9.18;2.83;;;14.90;99.90;;;;;;5068647;28;38032;-75
2022/05/11 00:05:12;;;;;;;10.50;2.30;;;14.90;99.90;;;;;;5067336;27;38601;-75
2022/05/11 00:07:38;;;;;;;8.63;2.20;;;14.80;99.90;;;;;;5082521;28;39231;-75
2022/05/11 00:10:12;;;;;;;8.70;2.35;;;14.80;99.90;;;;;;5070029;28;37397;-74
2022/05/11 00:12:40;;;;;;;9.02;2.15;;;14.80;99.90;;;;;;5041050;28;39076;-75
2022/05/11 00:15:07;;;;;;;6.22;1.70;;;14.80;99.90;;;;;;5051877;28;39206;-75
2022/05/11 00:17:33;;;;;;;11.75;2.70;;;14.80;99.90;;;;;;5051288;28;35658;-75
2022/05/11 00:19:59;;;;;;;8.35;2.10;;;14.80;99.90;;;;;;5053162;28;38128;-75
2022/05/11 00:22:25;;;;;;;11.35;2.55;;;14.80;99.90;;;;;;5053285;27;38576;-75
2022/05/11 00:24:51;;;;;;;9.32;2.35;;;14.80;99.90;;;;;;5072312;28;39097;-75
2022/05/11 00:27:17;;;;;;;9.57;2.53;;;14.80;99.90;;;;;;5076439;28;38424;-75
2022/05/11 00:29:44;;;;;;;6.18;1.70;;;14.70;99.90;;;;;;5086901;27;37336;-75
2022/05/11 00:32:10;;;;;;;9.30;2.33;;;14.70;99.90;;;;;;5073107;28;39502;-75
2022/05/11 00:34:36;;;;;;;6.05;2.10;;;14.60;99.90;;;;;;5064340;28;38714;-75
2022/05/11 00:37:02;;;;;;;9.10;2.17;;;14.60;99.90;;;;;;5070537;28;37963;-75
2022/05/11 00:39:28;;;;;;;7.50;2.22;;;14.60;99.90;;;;;;5066027;28;38335;-75
2022/05/11 00:41:54;;;;;;;6.00;2.40;;;14.60;99.90;;;;;;5075478;28;40650;-75
2022/05/11 00:44:21;;;;;;;5.68;2.22;;;14.60;99.90;;;;;;5075281;28;38743;-75
2022/05/11 00:47:09;;;;;;;6.57;2.47;;;14.60;99.90;;;;;;5069140;28;38750;-75
2022/05/11 00:49:58;;;;;;;6.25;2.38;;;14.60;99.90;;;;;;5093873;27;46127;-75
2022/05/11 00:52:32;;;;;;;5.28;2.63;;;14.60;99.90;;;;;;5077146;27;38445;-75
2022/05/11 00:55:10;;;;;;;8.38;2.00;;;14.70;99.90;;;;;;5055106;27;39275;-75
2022/05/11 00:57:41;;;;;;;9.82;2.35;;;14.70;99.90;;;;;;5080817;28;47540;-75
2022/05/11 01:00:13;;;;;;;9.38;2.67;;;14.80;99.90;;;;;;5083366;28;35826;-75
2022/05/11 01:02:44;;;;;;;6.03;2.10;;;14.70;99.90;;;;;;5072344;28;39267;-75
2022/05/11 01:05:11;;;;;;;8.07;1.92;;;14.80;99.90;;;;;;5081657;28;38411;-75
2022/05/11 01:07:38;;;;;;;4.95;1.60;;;14.80;99.90;;;;;;5073641;28;38967;-75
2022/05/11 01:10:07;;;;;;;6.70;2.30;;;14.80;99.90;;;;;;5089172;28;35919;-75
2022/05/11 01:12:38;;;;;;;5.88;1.67;;;14.80;99.90;;;;;;5067475;28;41843;-75
2022/05/11 01:15:06;;;;;;;4.38;2.28;;;14.80;99.90;;;;;;5083375;27;40274;-75
2022/05/11 01:17:38;;;;;;;7.80;1.80;;;14.80;99.90;;;;;;5079841;28;37942;-75
2022/05/11 01:20:12;;;;;;;8.48;1.98;;;14.80;99.90;;;;;;5046125;28;37263;-75
2022/05/11 01:23:04;;;;;;;5.05;1.40;;;14.80;99.90;;;;;;5078798;27;40299;-75
2022/05/11 01:25:31;;;;;;;4.78;1.33;;;14.70;99.90;;;;;;5075734;28;48348;-75
2022/05/11 01:28:05;;;;;;;8.07;1.70;;;14.70;99.90;;;;;;5069302;28;39010;-75
2022/05/11 01:30:31;;;;;;;5.45;1.58;;;14.70;99.90;;;;;;5060691;28;47200;-75
2022/05/11 01:32:57;;;;;;;5.43;1.60;;;14.70;99.90;;;;;;5061668;28;39842;-75
2022/05/11 01:35:46;;;;;;;6.43;1.40;;;14.70;99.90;;;;;;5071587;28;38432;-75
2022/05/11 01:38:42;;;;;;;4.10;1.13;;;14.70;99.90;;;;;;5066968;28;39286;-75
2022/05/11 01:41:16;;;;;;;7.30;2.25;;;14.70;99.90;;;;;;5092473;27;37813;-75
2022/05/11 01:43:42;;;;;;;5.85;1.40;;;14.70;99.90;;;;;;5072432;28;39806;-75
2022/05/11 01:46:09;;;;;;;4.45;1.45;;;14.70;99.90;;;;;;5074920;27;39344;-75
2022/05/11 01:48:35;;;;;;;3.67;1.83;;;14.70;99.90;;;;;;5079096;27;38672;-75
2022/05/11 01:51:02;;;;;;;5.68;1.52;;;14.80;99.90;;;;;;5072063;28;37170;-75
2022/05/11 01:53:28;;;;;;;7.25;1.70;;;14.70;99.90;;;;;;5071538;28;47516;-75
2022/05/11 01:55:55;;;;;;;4.88;1.10;;;14.70;99.90;;;;;;5074422;28;38610;-74
2022/05/11 01:58:23;;;;;;;4.75;1.33;;;14.70;99.90;;;;;;5064627;27;38667;-75
2022/05/11 02:00:49;;;;;;;7.97;1.15;;;14.70;99.90;;;;;;5079986;28;38915;-75
2022/05/11 02:03:18;;;;;;;8.73;1.48;;;14.80;99.90;;;;;;5073483;27;39251;-75
2022/05/11 02:08:48;;;;;;;5.53;1.40;;;14.80;99.90;;;;;;5027296;28;48583;-75
2022/05/11 02:11:15;;;;;;;5.40;1.10;;;14.80;99.90;;;;;;5063783;28;37892;-75
2022/05/11 02:13:41;;;;;;;6.47;1.90;;;14.80;99.90;;;;;;5078558;28;39038;-75
2022/05/11 02:16:07;;;;;;;7.15;1.48;;;14.70;99.90;;;;;;5074450;28;39643;-75
2022/05/11 02:18:34;;;;;;;3.42;1.02;;;14.70;99.90;;;;;;5064406;28;38928;-75
2022/05/11 02:21:00;;;;;;;3.90;1.30;;;14.80;99.90;;;;;;5075780;28;37845;-75
2022/05/11 02:23:26;;;;;;;4.80;1.40;;;14.70;99.90;;;;;;5073439;28;39732;-75
2022/05/11 02:25:53;;;;;;;5.13;1.00;;;14.80;99.90;;;;;;5079968;28;38518;-75
2022/05/11 02:28:21;;;;;;;6.53;1.25;;;14.70;99.90;;;;;;5079907;28;39803;-75
2022/05/11 02:30:49;;;;;;;5.88;1.85;;;14.70;99.90;;;;;;5072387;28;37353;-75
2022/05/11 02:33:15;;;;;;;7.40;1.30;;;14.70;99.90;;;;;;5073264;28;38977;-75
2022/05/11 02:35:43;;;;;;;5.35;1.25;;;14.70;99.90;;;;;;5074593;28;35415;-75
2022/05/11 02:38:15;;;;;;;4.63;1.25;;;14.70;99.90;;;;;;5079620;27;36906;-75
2022/05/11 02:40:43;;;;;;;5.15;1.23;;;14.70;99.90;;;;;;5084361;27;36949;-75
2022/05/11 02:43:11;;;;;;;6.32;1.70;;;14.70;99.90;;;;;;5078233;27;39508;-75
2022/05/11 02:45:39;;;;;;;5.40;1.23;;;14.70;99.90;;;;;;5073922;28;39456;-75
2022/05/11 02:48:07;;;;;;;5.07;1.08;;;14.70;99.90;;;;;;5080434;27;38502;-75
2022/05/11 02:50:37;;;;;;;6.47;1.15;;;14.70;99.90;;;;;;5078413;28;38309;-75
2022/05/11 02:53:07;;;;;;;10.13;1.83;;;14.70;99.90;;;;;;5082535;27;39743;-75
2022/05/11 02:55:47;;;;;;;6.97;1.30;;;14.70;99.90;;;;;;5076635;28;39781;-75
2022/05/11 02:58:16;;;;;;;4.53;0.88;;;14.70;99.90;;;;;;5078372;27;39476;-76
2022/05/11 03:00:44;;;;;;;6.35;1.52;;;14.70;99.90;;;;;;5079277;27;36651;-75
2022/05/11 03:03:12;;;;;;;6.43;1.40;;;14.70;99.90;;;;;;5077789;28;38815;-75
2022/05/11 03:05:40;;;;;;;3.20;1.10;;;14.70;99.90;;;;;;5078747;28;38599;-76
2022/05/11 03:08:06;;;;;;;4.40;1.30;;;14.70;99.90;;;;;;5071684;27;37963;-75
2022/05/11 03:10:32;;;;;;;4.97;1.25;;;14.70;99.90;;;;;;5077219;28;36341;-75
2022/05/11 03:12:58;;;;;;;5.22;1.15;;;14.70;99.90;;;;;;5089247;28;39272;-75
2022/05/11 03:15:25;;;;;;;6.28;1.58;;;14.70;99.90;;;;;;5074470;27;37154;-75
2022/05/11 03:17:51;;;;;;;5.75;1.17;;;14.70;99.90;;;;;;5073521;28;38413;-75
2022/05/11 03:20:21;;;;;;;4.68;1.40;;;14.70;99.90;;;;;;5069765;28;37260;-75
2022/05/11 03:22:48;;;;;;;4.65;1.02;;;14.70;99.90;;;;;;5072962;28;40744;-75
2022/05/11 03:25:14;;;;;;;4.65;1.30;;;14.70;99.90;;;;;;5080285;28;38444;-75
2022/05/11 03:27:40;;;;;;;5.47;1.25;;;14.70;99.90;;;;;;5066127;28;38308;-75
2022/05/11 03:30:07;;;;;;;5.70;1.05;;;14.70;99.90;;;;;;5073374;28;37342;-75
2022/05/11 03:35:18;;;;;;;5.80;1.38;;;14.70;99.90;;;;;;5066050;28;39801;-75
2022/05/11 03:37:44;;;;;;;7.13;1.45;;;14.70;99.90;;;;;;5077477;28;39593;-75
2022/05/11 03:40:12;;;;;;;3.08;0.80;;;14.70;99.90;;;;;;5074366;28;37182;-75
2022/05/11 03:42:40;;;;;;;3.75;1.10;;;14.70;99.90;;;;;;5071398;27;38923;-75
2022/05/11 03:45:21;;;;;;;6.32;1.30;;;14.70;99.90;;;;;;5076505;28;39075;-75
2022/05/11 03:47:47;;;;;;;5.47;1.15;;;14.60;99.90;;;;;;5084219;28;37899;-75
2022/05/11 03:50:22;;;;;;;6.20;0.95;;;14.60;99.90;;;;;;5084210;27;38201;-75
2022/05/11 03:52:50;;;;;;;7.10;1.30;;;14.60;99.90;;;;;;5075514;27;38488;-75
2022/05/11 03:55:17;;;;;;;6.10;1.10;;;14.60;99.90;;;;;;5081974;27;38485;-75
2022/05/11 03:57:43;;;;;;;5.80;1.30;;;14.60;99.90;;;;;;5072457;28;40540;-75
2022/05/11 04:00:12;;;;;;;5.38;1.30;;;14.50;99.90;;;;;;5083639;28;37563;-75
2022/05/11 04:02:40;;;;;;;5.82;2.03;;;14.50;99.90;;;;;;5077134;28;39484;-75
2022/05/11 04:05:07;;;;;;;4.22;1.33;;;14.40;99.90;;;;;;5076213;27;40791;-75
2022/05/11 04:07:33;;;;;;;4.97;1.17;;;14.30;99.90;;;;;;5072657;27;39025;-75
2022/05/11 04:10:00;;;;;;;4.03;1.10;;;14.30;99.90;;;;;;5082229;28;38951;-75
2022/05/11 04:12:29;;;;;;;5.43;0.90;;;14.30;99.90;;;;;;5068107;28;39550;-75
2022/05/11 04:14:55;;;;;;;7.78;1.23;;;14.30;99.90;;;;;;5050666;28;38937;-75
2022/05/11 04:17:22;;;;;;;5.22;1.23;;;14.30;99.90;;;;;;5048983;28;38635;-75
2022/05/11 04:19:48;;;;;;;6.32;1.20;;;14.40;99.90;;;;;;5068350;28;35591;-75
2022/05/11 04:22:14;;;;;;;3.65;1.13;;;14.40;99.90;;;;;;5070391;28;38939;-75
2022/05/11 04:24:40;;;;;;;3.55;0.75;;;14.30;99.90;;;;;;5093119;27;39023;-75
2022/05/11 04:27:06;;;;;;;4.32;1.00;;;14.30;99.90;;;;;;5068805;28;38693;-75
2022/05/11 04:29:32;;;;;;;4.93;1.05;;;14.20;99.90;;;;;;5069264;28;37985;-75
2022/05/11 04:31:58;;;;;;;7.63;1.38;;;14.20;99.90;;;;;;5076535;28;39258;-75
2022/05/11 04:34:25;;;;;;;5.80;1.05;;;14.20;99.90;;;;;;5070529;27;38614;-76
2022/05/11 04:36:51;;;;;;;5.45;1.10;;;14.20;99.90;;;;;;5071909;28;38066;-75
2022/05/11 04:39:17;;;;;;;5.45;1.40;;;14.20;99.90;;;;;;5068936;28;38070;-75
2022/05/11 04:41:44;;;;;;;4.85;1.25;;;14.20;99.90;;;;;;5070084;28;38483;-77
2022/05/11 04:44:11;;;;;;;4.75;0.90;;;14.30;99.90;;;;;;5078258;28;20134;-75
2022/05/11 04:46:38;;;;;;;3.45;0.90;;;14.30;99.90;;;;;;5070653;28;38915;-77
2022/05/11 04:49:17;;;;;;;4.75;1.08;;;14.30;99.90;;;;;;5070269;28;37975;-76
2022/05/11 04:51:43;;;;;;;6.63;1.17;;;14.30;99.90;;;;;;5078242;28;39565;-77
2022/05/11 04:54:11;;;;;;;4.90;1.00;;;14.30;99.90;;;;;;5075294;27;39083;-77
2022/05/11 04:56:40;;;;;;;6.60;1.20;;;14.30;99.90;;;;;;5070002;28;37238;-77
2022/05/11 04:59:08;;;;;;;5.78;1.73;;;14.20;99.90;;;;;;5071504;28;35575;-77
2022/05/11 05:01:34;;;;;;;7.22;1.13;;;14.20;99.90;;;;;;5068019;28;49836;-77
2022/05/11 05:04:01;;;;;;;6.43;1.63;;;14.10;99.90;;;;;;5079218;28;39132;-77
2022/05/11 05:06:32;;;;;;;6.32;1.20;;;14.10;99.90;;;;;;5069201;27;47638;-76
2022/05/11 05:09:04;;;;;;;5.47;1.30;;;14.20;99.90;;;;;;5067792;28;37990;-76
2022/05/11 05:11:30;;;;;;;6.50;1.75;;;14.20;99.90;;;;;;5048883;28;47199;-77
2022/05/11 05:13:57;;;;;;;4.47;1.10;;;14.20;99.90;;;;;;5072443;28;39187;-77
2022/05/11 05:16:23;;;;;;;7.55;1.40;;;14.30;99.90;;;;;;5067740;27;38827;-74
2022/05/11 05:18:50;;;;;;;10.35;2.10;;;14.20;99.90;;;;;;5082758;27;37547;-77
2022/05/11 05:21:16;;;;;;;7.25;1.65;;;14.20;99.90;;;;;;5081466;28;38643;-77
2022/05/11 05:23:42;;;;;;;7.68;1.50;;;14.30;99.90;;;;;;5072011;28;37505;-76
2022/05/11 05:26:08;;;;;;;6.57;1.33;;;14.30;99.90;;;;;;5071107;27;38640;-76
2022/05/11 05:31:21;;;;;;;4.05;1.10;;;14.50;99.90;;;;;;5057518;27;38626;-75
2022/05/11 05:33:49;;;;;;;6.50;1.65;;;14.60;99.90;;;;;;5064148;28;38738;-76
2022/05/11 05:36:15;;;;;;;11.73;1.50;;;14.60;99.90;;;;;;5074298;27;38787;-76
2022/05/11 05:38:42;;;;;;;6.60;1.52;;;14.70;99.90;;;;;;5075567;27;37362;-77
2022/05/11 05:41:10;;;;;;;8.65;1.48;;;14.80;99.90;;;;;;5064157;28;38470;-76
2022/05/11 05:43:37;;;;;;;5.35;1.10;;;14.80;99.90;;;;;;5074765;27;38629;-76
2022/05/11 05:46:04;;;;;;;12.15;1.58;;;14.90;99.90;;;;;;5057656;28;38318;-77
2022/05/11 05:48:30;;;;;;;7.18;1.42;;;14.90;99.90;;;;;;5059920;28;38687;-77
2022/05/11 05:51:09;;;;;;;7.13;1.50;;;15.00;99.90;;;;;;5072307;28;40571;-77
2022/05/11 05:53:36;;;;;;;9.68;2.70;;;15.00;99.90;;;;;;5072107;28;47501;-76
2022/05/11 05:56:03;;;;;;;6.78;1.73;;;15.10;99.90;;;;;;5073940;28;38436;-76
2022/05/11 05:58:29;;;;;;;7.53;1.67;;;15.10;99.90;;;;;;5072474;28;37023;-77
2022/05/11 06:00:56;;;;;;;7.25;1.75;;;15.20;99.90;;;;;;5084957;28;39403;-76
2022/05/11 06:03:25;;;;;;;7.15;1.05;;;15.40;99.90;;;;;;5080061;27;38331;-75
2022/05/11 06:05:52;;;;;;;4.43;0.93;;;15.40;99.90;;;;;;5076287;28;38993;-76
2022/05/11 06:08:19;;;;;;;7.05;1.20;;;15.60;99.90;;;;;;5071670;28;37383;-76
2022/05/11 06:10:47;;;;;;;3.03;1.02;;;15.70;99.90;;;;;;5078630;28;39388;-78
2022/05/11 06:13:15;;;;;;;4.97;1.42;;;15.80;99.90;;;;;;5075695;27;39107;-76
2022/05/11 06:15:42;;;;;;;4.80;1.23;;;15.60;99.90;;;;;;5068481;28;39203;-76
2022/05/11 06:18:10;;;;;;;5.47;1.40;;;15.40;99.90;;;;;;5081639;27;37226;-77
2022/05/11 06:20:37;;;;;;;6.38;1.50;;;15.20;99.90;;;;;;5081681;28;39234;-76
2022/05/11 06:23:04;;;;;;;11.05;1.65;;;15.30;99.90;;;;;;5072100;28;39092;-76
2022/05/11 06:25:32;;;;;;;5.72;1.48;;;15.30;99.90;;;;;;5079609;28;38358;-77
2022/05/11 06:27:58;;;;;;;7.47;1.45;;;15.30;99.90;;;;;;5095584;28;38788;-76
2022/05/11 06:30:28;;;;;;;8.20;1.30;;;15.40;99.90;;;;;;5075193;28;39471;-77
2022/05/11 06:32:55;;;;;;;5.60;0.98;;;15.40;99.90;;;;;;5073635;28;38969;-77
2022/05/11 06:35:22;;;;;;;8.05;1.13;;;15.70;99.90;;;;;;5072368;28;38025;-78
2022/05/11 06:37:50;;;;;;;7.85;1.27;;;15.90;99.90;;;;;;5079749;28;38930;-77
2022/05/11 06:40:17;;;;;;;3.47;0.88;;;15.80;99.90;;;;;;5078880;28;42692;-77
2022/05/11 06:42:44;;;;;;;5.20;0.88;;;16.00;99.90;;;;;;5088046;28;38955;-77
2022/05/11 06:45:11;;;;;;;5.00;1.33;;;16.10;99.90;;;;;;5078449;28;38760;-77
2022/05/11 06:47:37;;;;;;;7.25;1.45;;;16.50;99.90;;;;;;5076606;28;37745;-77
2022/05/11 06:50:04;;;;;;;6.53;0.95;;;16.80;99.90;;;;;;5076025;28;39198;-77
2022/05/11 06:52:30;;;;;;;4.60;1.10;;;16.90;99.90;;;;;;5071129;28;38301;-75
2022/05/11 07:00:32;;;;;;;5.53;1.10;;;16.60;99.90;;;;;;5048164;28;41110;-78
2022/05/11 07:02:58;;;;;;;7.57;1.25;;;17.00;99.90;;;;;;5060183;27;38697;-78
2022/05/11 07:05:24;;;;;;;6.10;1.15;;;17.00;99.90;;;;;;5061182;28;38710;-79
2022/05/11 07:07:52;;;;;;;4.38;0.98;;;17.00;99.90;;;;;;5060323;28;37861;-78
2022/05/11 07:10:18;;;;;;;3.70;0.98;;;16.90;99.90;;;;;;5058480;27;39078;-78
2022/05/11 07:12:48;;;;;;;5.22;1.00;;;17.00;99.90;;;;;;5060839;28;39243;-78
2022/05/11 07:15:16;;;;;;;5.80;0.80;;;17.10;99.90;;;;;;5074582;28;37124;-75
2022/05/11 07:17:47;;;;;;;4.40;1.02;;;17.00;99.90;;;;;;5084257;28;37384;-76
2022/05/11 07:20:18;;;;;;;7.53;1.25;;;17.30;99.90;;;;;;5065678;28;42375;-77
2022/05/11 07:22:44;;;;;;;3.78;0.65;;;17.80;99.90;;;;;;5078478;28;39009;-77
2022/05/11 07:25:14;;;;;;;5.93;1.77;;;17.80;99.90;;;;;;5079583;28;37729;-76
2022/05/11 07:27:44;;;;;;;5.30;1.25;;;17.90;99.90;;;;;;5053975;28;37870;-76
2022/05/11 07:30:13;;;;;;;3.95;1.00;;;18.20;99.90;;;;;;5050606;27;40300;-76
2022/05/11 07:32:40;;;;;;;4.13;0.98;;;18.20;99.90;;;;;;5058637;28;38460;-76
2022/05/11 07:35:06;;;;;;;8.20;1.00;;;18.10;99.90;;;;;;5060000;28;36878;-77
2022/05/11 07:37:32;;;;;;;12.57;1.10;;;18.10;99.90;;;;;;5056126;27;36755;-76
2022/05/11 07:39:59;;;;;;;4.18;1.00;;;18.00;99.90;;;;;;5050798;28;40243;-76
2022/05/11 07:42:27;;;;;;;3.28;0.80;;;17.70;99.90;;;;;;5057472;27;39334;-76
2022/05/11 07:44:53;;;;;;;5.93;1.65;;;17.60;99.90;;;;;;5054878;27;39972;-77
2022/05/11 07:47:21;;;;;;;7.45;1.23;;;17.70;99.90;;;;;;5050782;27;36699;-76
2022/05/11 07:49:47;;;;;;;6.43;1.35;;;18.00;99.90;;;;;;5056508;28;40373;-77
2022/05/11 07:52:13;;;;;;;6.88;1.58;;;18.40;99.90;;;;;;5053779;27;36719;-76
2022/05/11 07:54:40;;;;;;;10.57;1.80;;;18.50;99.90;;;;;;5079792;27;38921;-77
2022/05/11 07:59:56;;;;;;;8.02;1.35;;;18.30;99.90;;;;;;5067069;28;40127;-79
2022/05/11 08:02:26;;;;;;;7.68;1.48;;;18.50;99.90;;;;;;5064966;27;38306;-77
2022/05/11 08:05:01;;;;;;;6.47;1.63;;;18.80;99.90;;;;;;5073023;27;38182;-78
2022/05/11 08:07:34;;;;;;;4.68;1.60;;;18.90;99.90;;;;;;5068962;28;47233;-78
2022/05/11 08:10:00;;;;;;;5.15;1.58;;;19.10;99.90;;;;;;5074498;28;39529;-78
2022/05/11 08:12:27;;;;;;;9.15;1.85;;;18.80;99.90;;;;;;5056457;28;38189;-78
2022/05/11 08:14:54;;;;;;;10.48;2.58;;;18.50;99.90;;;;;;5071823;28;38436;-78
2022/05/11 08:17:32;;;;;;;7.65;1.35;;;18.60;99.90;;;;;;5075683;28;36900;-78
2022/05/11 08:19:59;;;;;;;8.88;2.22;;;18.60;99.90;;;;;;5075868;28;40324;-79
2022/05/11 08:22:27;;;;;;;9.48;1.95;;;18.60;99.90;;;;;;5062460;28;39729;-77
2022/05/11 08:24:54;;;;;;;13.05;2.22;;;18.20;99.90;;;;;;5070257;27;40125;-76
2022/05/11 08:27:24;;;;;;;10.20;2.33;;;18.10;99.90;;;;;;5063936;28;38334;-78
2022/05/11 08:35:21;;;;;;;9.82;1.70;;;18.80;99.90;;;;;;5073970;28;38531;-79
2022/05/11 08:37:47;;;;;;;11.82;2.50;;;19.10;99.90;;;;;;5077058;28;38176;-78
2022/05/11 08:40:46;;;;;;;12.68;2.22;;;18.90;99.90;;;;;;5076885;27;39324;-78
2022/05/11 08:43:17;;;;;;;11.90;2.35;;;19.00;99.90;;;;;;5068473;28;37515;-78
2022/05/11 08:45:58;;;;;;;7.72;2.30;;;19.30;99.90;;;;;;5093331;27;39213;-78
2022/05/11 08:48:36;;;;;;;11.37;2.30;;;19.20;99.90;;;;;;5064411;27;37998;-77
2022/05/11 08:51:05;;;;;;;10.98;2.63;;;19.50;99.90;;;;;;5052487;27;38931;-78
2022/05/11 08:53:38;;;;;;;10.50;2.33;;;19.80;99.90;;;;;;5062184;27;38785;-77
2022/05/11 08:56:14;;;;;;;14.35;2.55;;;20.00;99.90;;;;;;5050536;27;37616;-78
2022/05/11 08:58:49;;;;;;;12.13;2.67;;;19.60;99.90;;;;;;5060310;27;38051;-78
2022/05/11 09:01:29;;;;;;;14.90;2.70;;;19.50;99.90;;;;;;5046914;28;39760;-78
2022/05/11 09:03:59;;;;;;;16.40;3.33;;;19.50;99.90;;;;;;5058122;28;38518;-78
2022/05/11 09:06:28;;;;;;;22.67;4.82;;;19.60;99.90;;;;;;5058433;28;39016;-77
2022/05/11 09:08:56;;;;;;;15.20;3.40;;;19.30;99.90;;;;;;5059582;28;38639;-78
2022/05/11 09:11:26;;;;;;;13.35;2.40;;;19.40;99.90;;;;;;5066070;28;39590;-78
2022/05/11 09:13:55;;;;;;;13.07;2.55;;;19.20;99.90;;;;;;5073920;28;39118;-78
2022/05/11 09:16:38;;;;;;;11.85;2.00;;;19.50;99.90;;;;;;5079424;28;38894;-78
2022/05/11 09:19:14;;;;;;;6.68;1.60;;;19.90;99.90;;;;;;5070129;28;36998;-77
2022/05/11 09:21:49;;;;;;;8.35;2.40;;;20.10;99.90;;;;;;5076174;28;39775;-78
2022/05/11 09:24:18;;;;;;;7.18;1.88;;;20.20;99.90;;;;;;5079395;28;39187;-78
2022/05/11 09:26:47;;;;;;;8.48;1.80;;;20.00;99.90;;;;;;5077426;28;38251;-78
2022/05/11 09:29:13;;;;;;;10.15;1.60;;;20.00;99.90;;;;;;5094391;27;37353;-78
2022/05/11 09:31:39;;;;;;;8.40;1.50;;;19.90;99.90;;;;;;5079801;27;41102;-78
2022/05/11 09:34:07;;;;;;;7.85;2.10;;;19.90;99.90;;;;;;5076739;28;38962;-77
2022/05/11 09:36:44;;;;;;;6.57;2.03;;;20.10;99.90;;;;;;5081094;28;38836;-77
2022/05/11 09:39:15;;;;;;;8.00;1.67;;;20.10;99.90;;;;;;5096061;27;37841;-78
2022/05/11 09:41:52;;;;;;;5.63;1.70;;;20.00;99.90;;;;;;5075122;28;38313;-77
2022/05/11 09:44:39;;;;;;;8.98;1.40;;;20.20;99.90;;;;;;5080947;28;38088;-78
2022/05/11 09:47:29;;;;;;;7.93;1.75;;;20.50;99.90;;;;;;5082164;27;38724;-77
2022/05/11 09:50:14;;;;;;;10.80;2.00;;;20.70;99.90;;;;;;5080629;28;38106;-78
2022/05/11 09:52:40;;;;;;;6.82;1.45;;;20.20;99.90;;;;;;5082294;28;47127;-79
2022/05/11 09:55:25;;;;;;;9.43;2.38;;;20.10;99.90;;;;;;5080431;27;39103;-78
2022/05/11 09:58:01;;;;;;;8.18;2.13;;;20.30;99.90;;;;;;5090200;27;38708;-78
2022/05/11 10:00:38;;;;;;;15.20;2.65;;;20.10;99.90;;;;;;5074259;28;48952;-78
2022/05/11 10:03:12;;;;;;;12.95;2.33;;;20.30;99.90;;;;;;5077984;28;39012;-77
2022/05/11 10:05:49;;;;;;;10.45;2.15;;;20.60;99.90;;;;;;5083610;28;38244;-78
2022/05/11 10:08:26;;;;;;;11.05;1.90;;;21.00;99.90;;;;;;5073691;28;38797;-77
2022/05/11 10:10:59;;;;;;;11.30;2.63;;;21.20;99.90;;;;;;5087006;28;39259;-79
2022/05/11 10:13:46;;;;;;;9.55;1.90;;;21.10;99.90;;;;;;5076727;27;38576;-78
2022/05/11 10:22:14;;;;;;;11.80;2.30;;;22.10;99.90;;;;;;5056556;28;49850;-78
2022/05/11 10:25:25;;;;;;;9.88;1.92;;;22.20;99.90;;;;;;5055346;28;47272;-78
2022/05/11 10:28:13;;;;;;;6.28;1.63;;;21.80;99.90;;;;;;5015347;28;48800;-78
2022/05/11 10:31:01;;;;;;;6.40;1.70;;;21.80;99.90;;;;;;5052724;28;48146;-79
2022/05/11 10:33:59;;;;;;;13.30;2.38;;;21.50;99.90;;;;;;5052799;28;48995;-78
2022/05/11 10:36:31;;;;;;;6.72;1.67;;;21.20;99.90;;;;;;5035748;28;40531;-78
2022/05/11 10:39:06;;;;;;;6.97;1.67;;;21.30;99.90;;;;;;5076820;28;40425;-78
2022/05/11 10:41:53;;;;;;;10.35;2.45;;;21.10;99.90;;;;;;5067561;27;48522;-78
2022/05/11 10:44:41;;;;;;;7.97;2.00;;;20.70;99.90;;;;;;5063840;28;38077;-78
2022/05/11 10:47:30;;;;;;;6.30;1.70;;;20.90;99.90;;;;;;5076837;28;39606;-77
2022/05/11 10:50:31;;;;;;;8.32;1.80;;;21.00;99.90;;;;;;5083646;28;39372;-78
2022/05/11 10:53:18;;;;;;;3.90;1.48;;;21.30;99.90;;;;;;5091445;27;47167;-78
2022/05/11 10:56:06;;;;;;;11.90;1.70;;;21.70;99.90;;;;;;5070809;27;48503;-78
2022/05/11 10:58:38;;;;;;;11.07;2.40;;;21.40;99.90;;;;;;5078337;28;49539;-78
2022/05/11 11:01:15;;;;;;;7.93;1.25;;;21.90;99.90;;;;;;5083937;27;39245;-78
2022/05/11 11:03:50;;;;;;;6.65;1.67;;;21.90;99.90;;;;;;5080804;28;38857;-78
2022/05/11 11:07:14;;;;;;;8.13;2.05;;;21.80;99.90;;;;;;5084469;28;38275;-78
2022/05/11 11:09:46;;;;;;;6.30;1.67;;;22.00;99.90;;;;;;5025858;28;48745;-77
2022/05/11 11:12:17;;;;;;;;;;;22.10;99.90;;;;;;5076467;28;39642;-79
2022/05/11 11:14:49;;;;;;;5.63;1.60;;;22.10;99.90;;;;;;5085780;27;38197;-77
2022/05/11 11:17:19;;;;;;;9.70;2.25;;;21.90;99.90;;;;;;5071639;27;38308;-79
2022/05/11 11:19:49;;;;;;;9.65;2.22;;;22.20;99.90;;;;;;5081674;28;37883;-79
2022/05/11 11:22:16;;;;;;;7.20;1.63;;;21.90;99.90;;;;;;5082163;27;38409;-77
2022/05/11 11:24:43;;;;;;;5.32;1.20;;;22.30;99.90;;;;;;5080793;28;39002;-78
2022/05/11 11:27:10;;;;;;;6.93;2.03;;;22.60;99.90;;;;;;5084069;27;38226;-77
2022/05/11 11:29:38;;;;;;;4.97;1.77;;;23.00;99.90;;;;;;5083807;28;39926;-78
2022/05/11 11:32:08;;;;;;;8.02;2.10;;;22.90;99.90;;;;;;5081916;27;38528;-78
2022/05/11 11:35:08;;;;;;;6.40;1.70;;;22.80;99.90;;;;;;5078711;28;38960;-78
2022/05/11 11:37:44;;;;;;;8.93;1.85;;;22.90;99.90;;;;;;5049743;28;47993;-78
2022/05/11 11:40:13;;;;;;;6.45;1.85;;;22.90;99.90;;;;;;5086207;27;39363;-78
2022/05/11 11:42:44;;;;;;;6.55;1.98;;;22.90;99.90;;;;;;5092459;27;39722;-78
2022/05/11 11:45:31;;;;;;;8.65;1.98;;;23.00;99.90;;;;;;5064522;28;37935;-75
2022/05/11 11:48:02;;;;;;;9.25;1.98;;;23.10;99.90;;;;;;5078065;28;37984;-77
2022/05/11 11:50:50;;;;;;;9.18;2.42;;;23.60;99.90;;;;;;5071916;28;48908;-78
2022/05/11 11:53:34;;;;;;;10.93;2.80;;;23.60;99.90;;;;;;5075807;28;38491;-77
2022/05/11 11:56:32;;;;;;;9.90;2.83;;;23.50;99.90;;;;;;5068802;28;38706;-77
2022/05/11 11:59:04;;;;;;;14.73;2.97;;;22.80;99.90;;;;;;5050649;28;47084;-78
2022/05/11 12:01:34;;;;;;;10.98;2.70;;;22.90;99.90;;;;;;5073657;28;47622;-78
2022/05/11 12:04:05;;;;;;;11.70;2.70;;;23.00;99.90;;;;;;5053927;28;38811;-77
2022/05/11 12:15:07;;;;;;;12.38;2.95;;;22.70;99.90;;;;;;5057440;28;39352;-75
2022/05/11 12:17:36;;;;;;;14.98;3.15;;;22.70;99.90;;;;;;5058097;28;47283;-76
2022/05/11 12:20:17;;;;;;;12.90;2.83;;;22.90;99.90;;;;;;5057301;28;37170;-75
2022/05/11 12:22:47;;;;;;;10.48;3.10;;;23.30;99.90;;;;;;5047466;28;40139;-75
2022/05/11 12:25:23;;;;;;;11.95;3.10;;;23.70;99.90;;;;;;5071201;27;38828;-76
2022/05/11 12:27:50;;;;;;;11.30;2.75;;;23.40;99.90;;;;;;5071076;28;38833;-77
2022/05/11 12:30:18;;;;;;;13.50;2.85;;;23.20;99.90;;;;;;5086555;27;37604;-77
2022/05/11 12:33:06;;;;;;;10.00;2.83;;;23.50;99.90;;;;;;5077430;27;39421;-76
2022/05/11 12:35:41;;;;;;;12.57;3.13;;;24.20;99.90;;;;;;5078658;27;48638;-77
2022/05/11 12:38:13;;;;;;;11.15;2.38;;;23.60;99.90;;;;;;5076206;28;37221;-76
2022/05/11 12:40:48;;;;;;;11.77;3.05;;;23.60;99.90;;;;;;5089823;27;35886;-75
2022/05/11 12:43:34;;;;;;;13.05;3.47;;;24.00;99.90;;;;;;5073703;28;39874;-76
2022/05/11 12:46:09;;;;;;;11.30;3.03;;;24.10;99.90;;;;;;5081612;27;38061;-76
2022/05/11 12:48:41;;;;;;;11.23;2.95;;;23.90;99.90;;;;;;5075242;28;47189;-77
2022/05/11 12:51:10;;;;;;;13.93;3.42;;;23.50;99.90;;;;;;5076048;28;38484;-76
2022/05/11 12:53:50;;;;;;;12.38;3.08;;;23.60;99.90;;;;;;5070604;28;38994;-76
2022/05/11 12:56:27;;;;;;;14.60;3.55;;;23.50;99.90;;;;;;5054000;28;38456;-76
2022/05/11 12:58:57;;;;;;;10.70;3.33;;;23.80;99.90;;;;;;5060456;28;38802;-76
2022/05/11 13:01:25;;;;;;;11.10;3.10;;;23.30;99.90;;;;;;5077988;28;37479;-76
2022/05/11 13:03:54;;;;;;;17.55;3.28;;;23.10;99.90;;;;;;5069185;27;39349;-76
2022/05/11 13:06:34;;;;;;;14.65;3.10;;;22.70;99.90;;;;;;5078510;27;39332;-76
2022/05/11 13:09:06;;;;;;;15.77;3.55;;;22.70;99.90;;;;;;5072999;28;38809;-76
2022/05/11 13:11:34;;;;;;;14.27;3.30;;;22.80;99.90;;;;;;5078750;27;48715;-76
2022/05/11 13:14:01;;;;;;;12.75;2.72;;;22.50;99.90;;;;;;5077056;27;38895;-76
2022/05/11 13:16:34;;;;;;;13.98;3.53;;;22.70;99.90;;;;;;5082398;28;38539;-77
2022/05/11 13:19:21;;;;;;;14.70;3.08;;;22.80;99.90;;;;;;5082830;28;39721;-76
2022/05/11 13:21:48;;;;;;;15.75;3.15;;;22.70;99.90;;;;;;5078569;27;49037;-76
2022/05/11 13:24:34;;;;;;;16.63;3.10;;;22.60;99.90;;;;;;5081972;27;39807;-76
2022/05/11 13:27:00;;;;;;;12.30;2.83;;;22.50;99.90;;;;;;5080276;28;38025;-76
2022/05/11 13:29:28;;;;;;;13.60;2.65;;;22.10;99.90;;;;;;5086701;27;48130;-76
2022/05/11 13:32:06;;;;;;;13.32;2.63;;;22.00;99.90;;;;;;5078041;27;36965;-76
2022/05/11 13:34:34;;;;;;;16.48;3.42;;;21.80;99.90;;;;;;5068993;28;47024;-76
2022/05/11 13:37:02;;;;;;;12.05;3.20;;;21.80;99.90;;;;;;5076739;28;39005;-76
2022/05/11 13:39:29;;;;;;;12.75;3.15;;;21.90;99.90;;;;;;5078817;28;47596;-76
2022/05/11 13:42:00;;;;;;;11.93;2.80;;;22.10;99.90;;;;;;5086768;28;37921;-76